createdAt,value
2017-10-25T00:00:22.629Z,1013.39
2017-10-25T00:00:49.033Z,1013.38
2017-10-25T00:01:15.305Z,1013.4
2017-10-25T00:01:41.557Z,1013.36
2017-10-25T00:02:07.968Z,1013.37
2017-10-25T00:02:34.235Z,1013.4
2017-10-25T00:03:00.592Z,1013.4
2017-10-25T00:03:26.771Z,1013.39
2017-10-25T00:03:53.121Z,1013.38
2017-10-25T00:04:19.395Z,1013.39
2017-10-25T00:04:45.717Z,1013.42
2017-10-25T00:05:11.934Z,1013.38
2017-10-25T00:05:38.133Z,1013.35
2017-10-25T00:06:04.413Z,1013.38
2017-10-25T00:06:30.694Z,1013.38
2017-10-25T00:06:57.034Z,1013.37
2017-10-25T00:07:23.416Z,1013.43
2017-10-25T00:07:49.547Z,1013.41
2017-10-25T00:08:15.672Z,1013.39
2017-10-25T00:08:41.791Z,1013.43
2017-10-25T00:09:07.919Z,1013.39
2017-10-25T00:09:34.063Z,1013.31
2017-10-25T00:10:00.184Z,1013.34
2017-10-25T00:10:26.315Z,1013.39
2017-10-25T00:10:52.439Z,1013.31
2017-10-25T00:11:18.560Z,1013.34
2017-10-25T00:11:44.689Z,1013.36
2017-10-25T00:12:10.838Z,1013.34
2017-10-25T00:12:36.961Z,1013.31
2017-10-25T00:13:03.088Z,1013.34
2017-10-25T00:13:29.209Z,1013.31
2017-10-25T00:13:55.333Z,1013.33
2017-10-25T00:14:21.463Z,1013.33
2017-10-25T00:14:47.583Z,1013.33
2017-10-25T00:15:13.716Z,1013.33
2017-10-25T00:15:39.844Z,1013.34
2017-10-25T00:16:05.968Z,1013.3
2017-10-25T00:16:32.096Z,1013.24
2017-10-25T00:16:58.243Z,1013.24
2017-10-25T00:17:24.358Z,1013.25
2017-10-25T00:17:50.491Z,1013.28
2017-10-25T00:18:16.604Z,1013.24
2017-10-25T00:18:42.741Z,1013.29
2017-10-25T00:19:08.855Z,1013.24
2017-10-25T00:19:34.983Z,1013.29
2017-10-25T00:20:01.102Z,1013.31
2017-10-25T00:20:27.223Z,1013.25
2017-10-25T00:20:53.354Z,1013.27
2017-10-25T00:21:19.474Z,1013.27
2017-10-25T00:21:45.606Z,1013.29
2017-10-25T00:22:11.739Z,1013.29
2017-10-25T00:22:37.850Z,1013.28
2017-10-25T00:23:03.973Z,1013.3
2017-10-25T00:23:30.097Z,1013.28
2017-10-25T00:23:56.220Z,1013.32
2017-10-25T00:24:22.355Z,1013.27
2017-10-25T00:24:48.499Z,1013.28
2017-10-25T00:25:14.620Z,1013.28
2017-10-25T00:25:40.739Z,1013.32
2017-10-25T00:26:06.868Z,1013.3
2017-10-25T00:26:32.987Z,1013.34
2017-10-25T00:26:59.119Z,1013.32
2017-10-25T00:27:25.262Z,1013.31
2017-10-25T00:27:51.382Z,1013.31
2017-10-25T00:28:17.512Z,1013.31
2017-10-25T00:28:43.652Z,1013.36
2017-10-25T00:29:09.775Z,1013.28
2017-10-25T00:29:35.905Z,1013.27
2017-10-25T00:30:02.022Z,1013.32
2017-10-25T00:30:28.147Z,1013.27
2017-10-25T00:30:54.268Z,1013.3
2017-10-25T00:31:20.393Z,1013.27
2017-10-25T00:31:46.515Z,1013.29
2017-10-25T00:32:12.646Z,1013.31
2017-10-25T00:32:38.770Z,1013.31
2017-10-25T00:33:04.890Z,1013.34
2017-10-25T00:33:31.014Z,1013.28
2017-10-25T00:33:57.149Z,1013.34
2017-10-25T00:34:23.268Z,1013.31
2017-10-25T00:34:49.394Z,1013.31
2017-10-25T00:35:15.515Z,1013.31
2017-10-25T00:35:41.640Z,1013.31
2017-10-25T00:36:07.770Z,1013.3
2017-10-25T00:36:33.891Z,1013.33
2017-10-25T00:37:00.018Z,1013.34
2017-10-25T00:37:26.143Z,1013.33
2017-10-25T00:37:52.268Z,1013.34
2017-10-25T00:38:18.389Z,1013.31
2017-10-25T00:38:44.508Z,1013.34
2017-10-25T00:39:10.630Z,1013.34
2017-10-25T00:39:36.758Z,1013.33
2017-10-25T00:40:02.877Z,1013.3
2017-10-25T00:40:29.003Z,1013.31
2017-10-25T00:40:55.134Z,1013.31
2017-10-25T00:41:21.265Z,1013.29
2017-10-25T00:41:47.385Z,1013.25
2017-10-25T00:42:13.526Z,1013.26
2017-10-25T00:42:39.646Z,1013.26
2017-10-25T00:43:05.776Z,1013.22
2017-10-25T00:43:31.899Z,1013.23
2017-10-25T00:43:58.018Z,1013.2
2017-10-25T00:44:24.145Z,1013.21
2017-10-25T00:44:50.273Z,1013.22
2017-10-25T00:45:16.397Z,1013.2
2017-10-25T00:45:42.524Z,1013.19
2017-10-25T00:46:08.646Z,1013.17
2017-10-25T00:46:34.770Z,1013.21
2017-10-25T00:47:00.905Z,1013.14
2017-10-25T00:47:27.019Z,1013.19
2017-10-25T00:47:53.147Z,1013.24
2017-10-25T00:48:19.276Z,1013.13
2017-10-25T00:48:45.400Z,1013.19
2017-10-25T00:49:11.520Z,1013.12
2017-10-25T00:49:37.635Z,1013.15
2017-10-25T00:50:03.763Z,1013.15
2017-10-25T00:50:29.879Z,1013.13
2017-10-25T00:50:56.006Z,1013.14
2017-10-25T00:51:22.131Z,1013.18
2017-10-25T00:51:48.260Z,1013.16
2017-10-25T00:52:14.378Z,1013.16
2017-10-25T00:52:40.505Z,1013.21
2017-10-25T00:53:06.628Z,1013.16
2017-10-25T00:53:32.747Z,1013.17
2017-10-25T00:53:58.877Z,1013.15
2017-10-25T00:54:24.998Z,1013.16
2017-10-25T00:54:51.129Z,1013.22
2017-10-25T00:55:17.253Z,1013.19
2017-10-25T00:55:43.373Z,1013.16
2017-10-25T00:56:09.499Z,1013.18
2017-10-25T00:56:35.619Z,1013.16
2017-10-25T00:57:01.750Z,1013.16
2017-10-25T00:57:27.868Z,1013.17
2017-10-25T00:57:53.999Z,1013.19
2017-10-25T00:58:20.116Z,1013.15
2017-10-25T00:58:46.267Z,1013.16
2017-10-25T00:59:12.387Z,1013.12
2017-10-25T00:59:38.507Z,1013.11
2017-10-25T01:00:04.634Z,1013.11
2017-10-25T01:00:30.757Z,1013.11
2017-10-25T01:00:56.886Z,1013.12
2017-10-25T01:01:23.009Z,1013.11
2017-10-25T01:01:49.127Z,1013.11
2017-10-25T01:02:15.254Z,1013.07
2017-10-25T01:02:41.378Z,1013.09
2017-10-25T01:03:07.494Z,1013.1
2017-10-25T01:03:33.622Z,1013.06
2017-10-25T01:03:59.750Z,1013.13
2017-10-25T01:04:25.902Z,1013.11
2017-10-25T01:04:52.027Z,1013.09
2017-10-25T01:05:18.148Z,1013.12
2017-10-25T01:05:44.278Z,1013.08
2017-10-25T01:06:10.403Z,1013.06
2017-10-25T01:06:36.527Z,1013.12
2017-10-25T01:07:02.646Z,1013.08
2017-10-25T01:07:28.786Z,1013.12
2017-10-25T01:07:54.902Z,1013.12
2017-10-25T01:08:21.030Z,1013.13
2017-10-25T01:08:47.205Z,1013.12
2017-10-25T01:09:13.391Z,1013.1
2017-10-25T01:09:39.519Z,1013.1
2017-10-25T01:10:05.634Z,1013.11
2017-10-25T01:10:31.764Z,1013.1
2017-10-25T01:10:57.891Z,1013.11
2017-10-25T01:11:24.020Z,1013.07
2017-10-25T01:11:50.138Z,1013.08
2017-10-25T01:12:16.262Z,1013.1
2017-10-25T01:12:42.392Z,1013.1
2017-10-25T01:13:08.521Z,1013.06
2017-10-25T01:13:34.638Z,1013.07
2017-10-25T01:14:00.770Z,1013.03
2017-10-25T01:14:26.910Z,1013.03
2017-10-25T01:14:53.057Z,1013.05
2017-10-25T01:15:19.181Z,1013.06
2017-10-25T01:15:45.305Z,1013.02
2017-10-25T01:16:11.424Z,1013.05
2017-10-25T01:16:37.570Z,1013.07
2017-10-25T01:17:03.696Z,1013.01
2017-10-25T01:17:29.823Z,1013.09
2017-10-25T01:17:55.971Z,1013.06
2017-10-25T01:18:22.090Z,1013.06
2017-10-25T01:18:48.223Z,1013.02
2017-10-25T01:19:14.359Z,1013.01
2017-10-25T01:19:40.479Z,1012.97
2017-10-25T01:20:06.604Z,1012.99
2017-10-25T01:20:32.749Z,1013
2017-10-25T01:20:58.873Z,1013.02
2017-10-25T01:21:25.004Z,1013.03
2017-10-25T01:21:51.124Z,1012.99
2017-10-25T01:22:17.248Z,1012.97
2017-10-25T01:22:43.376Z,1012.96
2017-10-25T01:23:09.491Z,1012.98
2017-10-25T01:23:35.616Z,1012.96
2017-10-25T01:24:01.735Z,1012.94
2017-10-25T01:24:27.866Z,1012.95
2017-10-25T01:24:54.002Z,1012.9
2017-10-25T01:25:20.121Z,1012.92
2017-10-25T01:25:46.245Z,1012.95
2017-10-25T01:26:12.369Z,1012.96
2017-10-25T01:26:38.491Z,1012.93
2017-10-25T01:27:04.622Z,1012.94
2017-10-25T01:27:30.745Z,1012.99
2017-10-25T01:27:56.874Z,1012.96
2017-10-25T01:28:23.003Z,1012.95
2017-10-25T01:28:49.130Z,1013.01
2017-10-25T01:29:15.252Z,1012.98
2017-10-25T01:29:41.401Z,1012.98
2017-10-25T01:30:07.540Z,1013.01
2017-10-25T01:30:33.646Z,1013.02
2017-10-25T01:30:59.773Z,1012.98
2017-10-25T01:31:25.894Z,1013.02
2017-10-25T01:31:52.018Z,1012.99
2017-10-25T01:32:18.149Z,1012.96
2017-10-25T01:32:44.265Z,1012.98
2017-10-25T01:33:10.591Z,1012.93
2017-10-25T01:33:36.929Z,1012.96
2017-10-25T01:34:03.252Z,1012.91
2017-10-25T01:34:29.542Z,1012.99
2017-10-25T01:34:55.787Z,1012.95
2017-10-25T01:35:21.913Z,1012.94
2017-10-25T01:35:48.035Z,1012.91
2017-10-25T01:36:14.157Z,1012.96
2017-10-25T01:36:40.304Z,1013
2017-10-25T01:37:06.426Z,1012.93
2017-10-25T01:37:32.559Z,1012.94
2017-10-25T01:37:58.686Z,1012.94
2017-10-25T01:38:24.809Z,1012.97
2017-10-25T01:38:50.926Z,1012.93
2017-10-25T01:39:17.055Z,1012.93
2017-10-25T01:39:43.176Z,1012.95
2017-10-25T01:40:09.303Z,1012.94
2017-10-25T01:40:35.426Z,1012.91
2017-10-25T01:41:01.549Z,1012.95
2017-10-25T01:41:27.671Z,1012.92
2017-10-25T01:41:53.799Z,1012.89
2017-10-25T01:42:19.925Z,1012.98
2017-10-25T01:42:46.044Z,1012.94
2017-10-25T01:43:12.173Z,1012.88
2017-10-25T01:43:38.296Z,1012.95
2017-10-25T01:44:04.411Z,1012.9
2017-10-25T01:44:30.542Z,1012.91
2017-10-25T01:44:56.662Z,1012.88
2017-10-25T01:45:22.793Z,1012.94
2017-10-25T01:45:48.912Z,1012.91
2017-10-25T01:46:15.040Z,1012.91
2017-10-25T01:46:41.162Z,1012.87
2017-10-25T01:47:07.279Z,1012.91
2017-10-25T01:47:33.410Z,1012.88
2017-10-25T01:47:59.536Z,1012.87
2017-10-25T01:48:25.683Z,1012.89
2017-10-25T01:48:51.810Z,1012.91
2017-10-25T01:49:17.934Z,1012.83
2017-10-25T01:49:44.056Z,1012.8
2017-10-25T01:50:10.182Z,1012.85
2017-10-25T01:50:36.301Z,1012.85
2017-10-25T01:51:02.419Z,1012.87
2017-10-25T01:51:28.552Z,1012.87
2017-10-25T01:51:54.679Z,1012.88
2017-10-25T01:52:20.805Z,1012.87
2017-10-25T01:52:46.924Z,1012.9
2017-10-25T01:53:13.042Z,1012.84
2017-10-25T01:53:39.161Z,1012.88
2017-10-25T01:54:05.283Z,1012.89
2017-10-25T01:54:31.405Z,1012.86
2017-10-25T01:54:57.539Z,1012.9
2017-10-25T01:55:23.682Z,1012.89
2017-10-25T01:55:49.812Z,1012.91
2017-10-25T01:56:15.926Z,1012.86
2017-10-25T01:56:42.055Z,1012.91
2017-10-25T01:57:08.193Z,1012.91
2017-10-25T01:57:34.321Z,1012.88
2017-10-25T01:58:00.453Z,1012.88
2017-10-25T01:58:26.565Z,1012.9
2017-10-25T01:58:52.694Z,1012.86
2017-10-25T01:59:18.817Z,1012.89
2017-10-25T01:59:44.943Z,1012.86
2017-10-25T02:00:11.065Z,1012.88
2017-10-25T02:00:37.193Z,1012.92
2017-10-25T02:01:03.313Z,1012.88
2017-10-25T02:01:29.437Z,1012.87
2017-10-25T02:01:55.564Z,1012.86
2017-10-25T02:02:21.685Z,1012.93
2017-10-25T02:02:47.814Z,1012.88
2017-10-25T02:03:13.938Z,1012.88
2017-10-25T02:03:40.059Z,1012.92
2017-10-25T02:04:06.177Z,1012.86
2017-10-25T02:04:32.311Z,1012.95
2017-10-25T02:04:58.434Z,1012.9
2017-10-25T02:05:24.556Z,1012.87
2017-10-25T02:05:50.682Z,1012.87
2017-10-25T02:06:16.800Z,1012.92
2017-10-25T02:06:42.929Z,1012.9
2017-10-25T02:07:09.049Z,1012.89
2017-10-25T02:07:35.179Z,1012.87
2017-10-25T02:08:01.305Z,1012.87
2017-10-25T02:08:27.425Z,1012.85
2017-10-25T02:08:53.589Z,1012.87
2017-10-25T02:09:19.710Z,1012.85
2017-10-25T02:09:45.832Z,1012.83
2017-10-25T02:10:11.986Z,1012.82
2017-10-25T02:10:38.110Z,1012.82
2017-10-25T02:11:04.233Z,1012.81
2017-10-25T02:11:30.352Z,1012.82
2017-10-25T02:11:56.479Z,1012.79
2017-10-25T02:12:22.602Z,1012.81
2017-10-25T02:12:48.725Z,1012.79
2017-10-25T02:13:14.856Z,1012.78
2017-10-25T02:13:40.978Z,1012.83
2017-10-25T02:14:07.107Z,1012.8
2017-10-25T02:14:33.237Z,1012.79
2017-10-25T02:14:59.349Z,1012.79
2017-10-25T02:15:25.470Z,1012.79
2017-10-25T02:15:51.601Z,1012.8
2017-10-25T02:16:17.715Z,1012.78
2017-10-25T02:16:43.843Z,1012.8
2017-10-25T02:17:09.966Z,1012.8
2017-10-25T02:17:36.090Z,1012.78
2017-10-25T02:18:02.219Z,1012.76
2017-10-25T02:18:28.362Z,1012.75
2017-10-25T02:18:54.514Z,1012.76
2017-10-25T02:19:20.632Z,1012.78
2017-10-25T02:19:46.761Z,1012.74
2017-10-25T02:20:12.883Z,1012.76
2017-10-25T02:20:39.012Z,1012.81
2017-10-25T02:21:05.133Z,1012.78
2017-10-25T02:21:31.256Z,1012.77
2017-10-25T02:21:57.383Z,1012.77
2017-10-25T02:22:23.509Z,1012.77
2017-10-25T02:22:49.629Z,1012.76
2017-10-25T02:23:15.761Z,1012.8
2017-10-25T02:23:41.884Z,1012.78
2017-10-25T02:24:08.010Z,1012.78
2017-10-25T02:24:34.129Z,1012.78
2017-10-25T02:25:00.251Z,1012.77
2017-10-25T02:25:26.380Z,1012.73
2017-10-25T02:25:52.500Z,1012.75
2017-10-25T02:26:18.629Z,1012.75
2017-10-25T02:26:44.751Z,1012.73
2017-10-25T02:27:10.874Z,1012.74
2017-10-25T02:27:36.992Z,1012.74
2017-10-25T02:28:03.122Z,1012.69
2017-10-25T02:28:29.248Z,1012.75
2017-10-25T02:28:55.366Z,1012.75
2017-10-25T02:29:21.499Z,1012.75
2017-10-25T02:29:47.620Z,1012.75
2017-10-25T02:30:13.743Z,1012.77
2017-10-25T02:30:39.860Z,1012.77
2017-10-25T02:31:06.000Z,1012.75
2017-10-25T02:31:32.120Z,1012.75
2017-10-25T02:31:58.255Z,1012.7
2017-10-25T02:32:24.372Z,1012.76
2017-10-25T02:32:50.501Z,1012.73
2017-10-25T02:33:16.630Z,1012.74
2017-10-25T02:33:42.753Z,1012.75
2017-10-25T02:34:08.893Z,1012.72
2017-10-25T02:34:35.036Z,1012.74
2017-10-25T02:35:01.166Z,1012.74
2017-10-25T02:35:27.308Z,1012.75
2017-10-25T02:35:53.432Z,1012.71
2017-10-25T02:36:19.555Z,1012.72
2017-10-25T02:36:45.681Z,1012.71
2017-10-25T02:37:11.806Z,1012.72
2017-10-25T02:37:37.929Z,1012.69
2017-10-25T02:38:04.054Z,1012.7
2017-10-25T02:38:30.180Z,1012.69
2017-10-25T02:38:56.303Z,1012.7
2017-10-25T02:39:22.435Z,1012.69
2017-10-25T02:39:48.559Z,1012.69
2017-10-25T02:40:14.670Z,1012.66
2017-10-25T02:40:40.798Z,1012.68
2017-10-25T02:41:06.924Z,1012.68
2017-10-25T02:41:33.046Z,1012.71
2017-10-25T02:41:59.176Z,1012.69
2017-10-25T02:42:25.300Z,1012.69
2017-10-25T02:42:51.430Z,1012.66
2017-10-25T02:43:17.547Z,1012.67
2017-10-25T02:43:43.666Z,1012.65
2017-10-25T02:44:09.787Z,1012.64
2017-10-25T02:44:35.925Z,1012.67
2017-10-25T02:45:02.060Z,1012.65
2017-10-25T02:45:28.192Z,1012.68
2017-10-25T02:45:54.324Z,1012.62
2017-10-25T02:46:20.458Z,1012.62
2017-10-25T02:46:46.604Z,1012.64
2017-10-25T02:47:12.727Z,1012.63
2017-10-25T02:47:38.846Z,1012.58
2017-10-25T02:48:04.976Z,1012.57
2017-10-25T02:48:31.101Z,1012.59
2017-10-25T02:48:57.234Z,1012.56
2017-10-25T02:49:23.363Z,1012.54
2017-10-25T02:49:49.499Z,1012.49
2017-10-25T02:50:15.628Z,1012.52
2017-10-25T02:50:41.746Z,1012.54
2017-10-25T02:51:07.868Z,1012.45
2017-10-25T02:51:33.992Z,1012.47
2017-10-25T02:52:00.114Z,1012.45
2017-10-25T02:52:26.242Z,1012.46
2017-10-25T02:52:52.365Z,1012.49
2017-10-25T02:53:18.499Z,1012.46
2017-10-25T02:53:44.626Z,1012.48
2017-10-25T02:54:10.770Z,1012.44
2017-10-25T02:54:36.887Z,1012.52
2017-10-25T02:55:03.033Z,1012.49
2017-10-25T02:55:29.158Z,1012.62
2017-10-25T02:55:55.282Z,1012.54
2017-10-25T02:56:21.404Z,1012.56
2017-10-25T02:56:47.526Z,1012.51
2017-10-25T02:57:13.649Z,1012.52
2017-10-25T02:57:39.776Z,1012.56
2017-10-25T02:58:05.909Z,1012.55
2017-10-25T02:58:32.026Z,1012.54
2017-10-25T02:58:58.155Z,1012.54
2017-10-25T02:59:24.286Z,1012.58
2017-10-25T02:59:50.410Z,1012.53
2017-10-25T03:00:16.522Z,1012.49
2017-10-25T03:00:42.649Z,1012.56
2017-10-25T03:01:08.768Z,1012.49
2017-10-25T03:01:34.897Z,1012.46
2017-10-25T03:02:01.020Z,1012.44
2017-10-25T03:02:27.139Z,1012.41
2017-10-25T03:02:53.264Z,1012.41
2017-10-25T03:03:19.391Z,1012.44
2017-10-25T03:03:45.513Z,1012.43
2017-10-25T03:04:11.641Z,1012.48
2017-10-25T03:04:37.781Z,1012.46
2017-10-25T03:05:03.890Z,1012.48
2017-10-25T03:05:30.012Z,1012.47
2017-10-25T03:05:56.140Z,1012.49
2017-10-25T03:06:22.259Z,1012.47
2017-10-25T03:06:48.381Z,1012.48
2017-10-25T03:07:14.513Z,1012.51
2017-10-25T03:07:40.630Z,1012.51
2017-10-25T03:08:06.756Z,1012.52
2017-10-25T03:08:32.885Z,1012.56
2017-10-25T03:08:59.007Z,1012.52
2017-10-25T03:09:25.133Z,1012.58
2017-10-25T03:09:51.274Z,1012.56
2017-10-25T03:10:17.403Z,1012.62
2017-10-25T03:10:43.521Z,1012.59
2017-10-25T03:11:09.644Z,1012.6
2017-10-25T03:11:35.772Z,1012.56
2017-10-25T03:12:01.914Z,1012.58
2017-10-25T03:12:28.044Z,1012.59
2017-10-25T03:12:54.171Z,1012.58
2017-10-25T03:13:20.291Z,1012.57
2017-10-25T03:13:46.419Z,1012.56
2017-10-25T03:14:12.538Z,1012.56
2017-10-25T03:14:38.667Z,1012.56
2017-10-25T03:15:04.788Z,1012.54
2017-10-25T03:15:30.913Z,1012.58
2017-10-25T03:15:57.046Z,1012.55
2017-10-25T03:16:23.189Z,1012.54
2017-10-25T03:16:49.303Z,1012.57
2017-10-25T03:17:15.436Z,1012.55
2017-10-25T03:17:41.555Z,1012.54
2017-10-25T03:18:07.684Z,1012.56
2017-10-25T03:18:33.808Z,1012.54
2017-10-25T03:18:59.928Z,1012.58
2017-10-25T03:19:26.050Z,1012.57
2017-10-25T03:19:52.189Z,1012.6
2017-10-25T03:20:18.317Z,1012.58
2017-10-25T03:20:44.453Z,1012.57
2017-10-25T03:21:10.563Z,1012.58
2017-10-25T03:21:36.691Z,1012.57
2017-10-25T03:22:02.812Z,1012.59
2017-10-25T03:22:28.936Z,1012.61
2017-10-25T03:22:55.057Z,1012.58
2017-10-25T03:23:21.188Z,1012.61
2017-10-25T03:23:47.322Z,1012.59
2017-10-25T03:24:13.443Z,1012.56
2017-10-25T03:24:39.571Z,1012.6
2017-10-25T03:25:05.684Z,1012.54
2017-10-25T03:25:31.806Z,1012.62
2017-10-25T03:25:57.930Z,1012.56
2017-10-25T03:26:24.073Z,1012.5
2017-10-25T03:26:50.196Z,1012.5
2017-10-25T03:27:16.322Z,1012.51
2017-10-25T03:27:42.452Z,1012.5
2017-10-25T03:28:08.576Z,1012.53
2017-10-25T03:28:34.717Z,1012.51
2017-10-25T03:29:00.843Z,1012.48
2017-10-25T03:29:26.968Z,1012.47
2017-10-25T03:29:53.091Z,1012.54
2017-10-25T03:30:19.218Z,1012.5
2017-10-25T03:30:45.340Z,1012.49
2017-10-25T03:31:11.458Z,1012.49
2017-10-25T03:31:37.589Z,1012.47
2017-10-25T03:32:03.710Z,1012.5
2017-10-25T03:32:29.829Z,1012.52
2017-10-25T03:32:55.950Z,1012.49
2017-10-25T03:33:22.079Z,1012.48
2017-10-25T03:33:48.205Z,1012.5
2017-10-25T03:34:14.327Z,1012.56
2017-10-25T03:34:40.453Z,1012.53
2017-10-25T03:35:06.574Z,1012.55
2017-10-25T03:35:32.701Z,1012.51
2017-10-25T03:35:58.827Z,1012.5
2017-10-25T03:36:24.951Z,1012.47
2017-10-25T03:36:51.077Z,1012.5
2017-10-25T03:37:17.196Z,1012.49
2017-10-25T03:37:43.323Z,1012.49
2017-10-25T03:38:09.462Z,1012.47
2017-10-25T03:38:35.568Z,1012.47
2017-10-25T03:39:01.694Z,1012.46
2017-10-25T03:39:27.814Z,1012.46
2017-10-25T03:39:53.936Z,1012.46
2017-10-25T03:40:20.063Z,1012.46
2017-10-25T03:40:46.187Z,1012.45
2017-10-25T03:41:12.309Z,1012.43
2017-10-25T03:41:38.436Z,1012.46
2017-10-25T03:42:04.562Z,1012.45
2017-10-25T03:42:30.682Z,1012.49
2017-10-25T03:42:56.811Z,1012.49
2017-10-25T03:43:22.928Z,1012.49
2017-10-25T03:43:49.057Z,1012.49
2017-10-25T03:44:15.197Z,1012.47
2017-10-25T03:44:41.324Z,1012.45
2017-10-25T03:45:07.449Z,1012.43
2017-10-25T03:45:33.567Z,1012.44
2017-10-25T03:45:59.690Z,1012.45
2017-10-25T03:46:25.815Z,1012.43
2017-10-25T03:46:51.943Z,1012.44
2017-10-25T03:47:18.062Z,1012.45
2017-10-25T03:47:44.189Z,1012.43
2017-10-25T03:48:10.334Z,1012.44
2017-10-25T03:48:36.454Z,1012.42
2017-10-25T03:49:02.579Z,1012.38
2017-10-25T03:49:28.708Z,1012.42
2017-10-25T03:49:54.830Z,1012.4
2017-10-25T03:50:20.961Z,1012.39
2017-10-25T03:50:47.090Z,1012.4
2017-10-25T03:51:13.210Z,1012.37
2017-10-25T03:51:39.336Z,1012.39
2017-10-25T03:52:05.451Z,1012.39
2017-10-25T03:52:31.581Z,1012.37
2017-10-25T03:52:57.707Z,1012.37
2017-10-25T03:53:23.827Z,1012.35
2017-10-25T03:53:49.952Z,1012.42
2017-10-25T03:54:16.078Z,1012.4
2017-10-25T03:54:42.199Z,1012.43
2017-10-25T03:55:08.326Z,1012.43
2017-10-25T03:55:34.448Z,1012.48
2017-10-25T03:56:00.575Z,1012.5
2017-10-25T03:56:26.710Z,1012.46
2017-10-25T03:56:52.842Z,1012.45
2017-10-25T03:57:18.963Z,1012.47
2017-10-25T03:57:45.087Z,1012.47
2017-10-25T03:58:11.209Z,1012.45
2017-10-25T03:58:37.330Z,1012.45
2017-10-25T03:59:03.466Z,1012.44
2017-10-25T03:59:29.580Z,1012.41
2017-10-25T03:59:55.703Z,1012.44
2017-10-25T04:00:21.834Z,1012.45
2017-10-25T04:00:47.956Z,1012.44
2017-10-25T04:01:14.076Z,1012.47
2017-10-25T04:01:40.197Z,1012.48
2017-10-25T04:02:06.327Z,1012.46
2017-10-25T04:02:32.447Z,1012.47
2017-10-25T04:02:58.576Z,1012.47
2017-10-25T04:03:24.692Z,1012.45
2017-10-25T04:03:50.827Z,1012.44
2017-10-25T04:04:16.952Z,1012.47
2017-10-25T04:04:43.090Z,1012.49
2017-10-25T04:05:09.221Z,1012.49
2017-10-25T04:05:35.339Z,1012.51
2017-10-25T04:06:01.469Z,1012.49
2017-10-25T04:06:27.590Z,1012.42
2017-10-25T04:06:53.710Z,1012.45
2017-10-25T04:07:19.836Z,1012.46
2017-10-25T04:07:45.964Z,1012.46
2017-10-25T04:08:12.081Z,1012.46
2017-10-25T04:08:38.209Z,1012.53
2017-10-25T04:09:04.334Z,1012.53
2017-10-25T04:09:30.457Z,1012.51
2017-10-25T04:09:56.583Z,1012.53
2017-10-25T04:10:22.707Z,1012.47
2017-10-25T04:10:48.832Z,1012.45
2017-10-25T04:11:14.951Z,1012.5
2017-10-25T04:11:41.086Z,1012.49
2017-10-25T04:12:07.207Z,1012.46
2017-10-25T04:12:33.327Z,1012.51
2017-10-25T04:12:59.458Z,1012.49
2017-10-25T04:13:25.579Z,1012.43
2017-10-25T04:13:51.707Z,1012.41
2017-10-25T04:14:17.850Z,1012.46
2017-10-25T04:14:43.961Z,1012.43
2017-10-25T04:15:10.090Z,1012.4
2017-10-25T04:15:36.218Z,1012.33
2017-10-25T04:16:02.330Z,1012.39
2017-10-25T04:16:28.451Z,1012.39
2017-10-25T04:16:54.579Z,1012.39
2017-10-25T04:17:20.701Z,1012.4
2017-10-25T04:17:46.822Z,1012.36
2017-10-25T04:18:12.945Z,1012.36
2017-10-25T04:18:39.070Z,1012.39
2017-10-25T04:19:05.197Z,1012.37
2017-10-25T04:19:31.314Z,1012.34
2017-10-25T04:19:57.449Z,1012.36
2017-10-25T04:20:23.574Z,1012.38
2017-10-25T04:20:49.700Z,1012.37
2017-10-25T04:21:15.820Z,1012.39
2017-10-25T04:21:41.943Z,1012.35
2017-10-25T04:22:08.071Z,1012.33
2017-10-25T04:22:34.189Z,1012.32
2017-10-25T04:23:00.316Z,1012.34
2017-10-25T04:23:26.443Z,1012.34
2017-10-25T04:23:52.562Z,1012.36
2017-10-25T04:24:18.692Z,1012.33
2017-10-25T04:24:44.812Z,1012.35
2017-10-25T04:25:10.942Z,1012.37
2017-10-25T04:25:37.060Z,1012.36
2017-10-25T04:26:03.185Z,1012.34
2017-10-25T04:26:29.308Z,1012.38
2017-10-25T04:26:55.430Z,1012.32
2017-10-25T04:27:21.556Z,1012.3
2017-10-25T04:27:47.675Z,1012.32
2017-10-25T04:28:13.803Z,1012.34
2017-10-25T04:28:39.931Z,1012.31
2017-10-25T04:29:06.052Z,1012.33
2017-10-25T04:29:32.172Z,1012.32
2017-10-25T04:29:58.300Z,1012.32
2017-10-25T04:30:24.427Z,1012.3
2017-10-25T04:30:50.546Z,1012.28
2017-10-25T04:31:16.675Z,1012.3
2017-10-25T04:31:42.797Z,1012.29
2017-10-25T04:32:08.926Z,1012.27
2017-10-25T04:32:35.041Z,1012.31
2017-10-25T04:33:01.178Z,1012.23
2017-10-25T04:33:27.294Z,1012.28
2017-10-25T04:33:53.424Z,1012.31
2017-10-25T04:34:19.553Z,1012.27
2017-10-25T04:34:45.678Z,1012.28
2017-10-25T04:35:11.797Z,1012.26
2017-10-25T04:35:37.921Z,1012.22
2017-10-25T04:36:04.046Z,1012.21
2017-10-25T04:36:30.167Z,1012.25
2017-10-25T04:36:56.286Z,1012.22
2017-10-25T04:37:22.409Z,1012.23
2017-10-25T04:37:48.538Z,1012.2
2017-10-25T04:38:14.664Z,1012.21
2017-10-25T04:38:40.785Z,1012.23
2017-10-25T04:39:06.906Z,1012.25
2017-10-25T04:39:33.030Z,1012.29
2017-10-25T04:39:59.174Z,1012.25
2017-10-25T04:40:25.295Z,1012.25
2017-10-25T04:40:51.416Z,1012.21
2017-10-25T04:41:17.543Z,1012.2
2017-10-25T04:41:43.663Z,1012.2
2017-10-25T04:42:09.789Z,1012.13
2017-10-25T04:42:35.916Z,1012.15
2017-10-25T04:43:02.040Z,1012.13
2017-10-25T04:43:28.159Z,1012.12
2017-10-25T04:43:54.292Z,1012.11
2017-10-25T04:44:20.411Z,1012.11
2017-10-25T04:44:46.531Z,1012.06
2017-10-25T04:45:12.658Z,1012.14
2017-10-25T04:45:38.778Z,1012.12
2017-10-25T04:46:04.909Z,1012.1
2017-10-25T04:46:31.031Z,1012.12
2017-10-25T04:46:57.173Z,1012.16
2017-10-25T04:47:23.302Z,1012.16
2017-10-25T04:47:49.427Z,1012.11
2017-10-25T04:48:15.546Z,1012.11
2017-10-25T04:48:41.663Z,1012.14
2017-10-25T04:49:07.792Z,1012.14
2017-10-25T04:49:33.913Z,1012.17
2017-10-25T04:50:00.040Z,1012.17
2017-10-25T04:50:26.167Z,1012.1
2017-10-25T04:50:52.308Z,1012.13
2017-10-25T04:51:18.435Z,1012.15
2017-10-25T04:51:44.555Z,1012.11
2017-10-25T04:52:10.676Z,1012.19
2017-10-25T04:52:36.828Z,1012.16
2017-10-25T04:53:02.949Z,1012.15
2017-10-25T04:53:29.077Z,1012.17
2017-10-25T04:53:55.194Z,1012.15
2017-10-25T04:54:21.325Z,1012.17
2017-10-25T04:54:47.443Z,1012.16
2017-10-25T04:55:13.590Z,1012.16
2017-10-25T04:55:39.718Z,1012.15
2017-10-25T04:56:05.838Z,1012.13
2017-10-25T04:56:31.963Z,1012.09
2017-10-25T04:56:58.083Z,1012.16
2017-10-25T04:57:24.204Z,1012.09
2017-10-25T04:57:50.339Z,1012.14
2017-10-25T04:58:16.463Z,1012.14
2017-10-25T04:58:42.584Z,1012.09
2017-10-25T04:59:08.713Z,1012.13
2017-10-25T04:59:34.837Z,1012.09
2017-10-25T05:00:00.957Z,1012.06
2017-10-25T05:00:27.078Z,1011.97
2017-10-25T05:00:53.202Z,1012.01
2017-10-25T05:01:19.332Z,1012
2017-10-25T05:01:45.451Z,1011.99
2017-10-25T05:02:11.570Z,1011.96
2017-10-25T05:02:37.697Z,1011.98
2017-10-25T05:03:03.823Z,1012.06
2017-10-25T05:03:29.945Z,1011.98
2017-10-25T05:03:56.074Z,1012.04
2017-10-25T05:04:22.200Z,1011.98
2017-10-25T05:04:48.319Z,1012.02
2017-10-25T05:05:14.450Z,1012.03
2017-10-25T05:05:40.569Z,1012.05
2017-10-25T05:06:06.692Z,1012
2017-10-25T05:06:32.819Z,1012.06
2017-10-25T05:06:58.941Z,1011.99
2017-10-25T05:07:25.070Z,1012.06
2017-10-25T05:07:51.190Z,1012.03
2017-10-25T05:08:17.319Z,1012.01
2017-10-25T05:08:43.443Z,1012.03
2017-10-25T05:09:09.562Z,1012
2017-10-25T05:09:35.685Z,1012.01
2017-10-25T05:10:01.812Z,1011.97
2017-10-25T05:10:27.939Z,1012.07
2017-10-25T05:10:54.060Z,1012.08
2017-10-25T05:11:20.181Z,1012.06
2017-10-25T05:11:46.310Z,1011.97
2017-10-25T05:12:12.434Z,1011.98
2017-10-25T05:12:38.553Z,1011.95
2017-10-25T05:13:04.676Z,1011.96
2017-10-25T05:13:30.804Z,1011.94
2017-10-25T05:13:56.926Z,1011.98
2017-10-25T05:14:23.047Z,1011.89
2017-10-25T05:14:49.175Z,1011.87
2017-10-25T05:15:15.294Z,1011.86
2017-10-25T05:15:41.424Z,1011.82
2017-10-25T05:16:07.544Z,1011.85
2017-10-25T05:16:33.665Z,1011.87
2017-10-25T05:16:59.792Z,1011.8
2017-10-25T05:17:25.916Z,1011.83